首页
METAR-TAF:

METAR-TAF

机场 :

維多利亞港口, 不列颠哥伦比亚, 加拿大

纬度: 48-25N, 经度: 123-20W, 海拔: 5米

当前天气观测

该预报发布于6小时和10分钟前的05:00 UTC
静风
温度 9°C
湿度 87%
气压 1013 hPa
能見度: 19.3公里
散云层高于700英尺
多云层高于1300英尺
阴天层高于17000英尺

METAR: CYWH 150500Z 00000KT 12SM SCT007 BKN013 OVC170 09/07 A2992 RMK SC3SC3AC2 LAST STFD OBS/NEXT 151400Z SLP135

时间: 03:10 (11:10 UTC)

预报

该预报发布于11小时和32分钟前的23:38 UTC
预报有效从15日的 00点(UTC)到 15日的 05点(UTC)
风速3节,风向多变
能見度: 10公里
少量云层高于3000英尺
多云层高于12000英尺
成为
从 15日的 01点(UTC)到 15日的 03点(UTC)
风速3节,风向多变

TAF: CYWH 142338Z 1500/1505 VRB03KT P6SM FEW030 BKN120 BECMG 1501/1503 VRB03KT RMK NXT FCST WILL BE ISSUED AT 151515Z

超过4000个机场的气象观测和天气预报(METAR&TAF报告)。

可查询的气象台以黄色和红色小点在地图上表示。

将鼠标移到小点上方,可查看气象台名称。

然后点击查看天气观测和预报。

如需切换地图:点击带黑十字的绿色按钮放大地图;点击带横线的绿色按钮缩小地图;或者点击绿色箭头查看邻近地区的地图。


METAR-TAF: